Time;durP1;ratioP1;P1;durP2;ratioP2;P2;SDS_P1;SDS_P2;PMS_P1;PMS_P2;Temp;Humidity;BMP_temperature;BMP_pressure;BME280_temperature;BME280_humidity;BME280_pressure;Samples;Min_cycle;Max_cycle;Signal;HPM_P1;HPM_P2
2022/02/03 00:03:18;;;;;;;4.80;2.63;;;9.60;96.70;;;;;;9973941;28;20374;-71
2022/02/03 00:28:44;;;;;;;6.35;3.28;;;9.50;96.70;;;;;;9959468;28;20089;-70
2022/02/03 00:33:47;;;;;;;5.40;2.85;;;9.50;96.80;;;;;;9969994;28;20045;-71
2022/02/03 00:48:57;;;;;;;6.32;3.15;;;9.60;96.60;;;;;;9952735;28;20146;-72
2022/02/03 00:53:48;;;;;;;4.38;2.88;;;9.50;96.80;;;;;;9971503;28;20026;-70
2022/02/03 00:59:07;;;;;;;5.43;2.60;;;9.50;96.80;;;;;;9974227;28;20113;-69
2022/02/03 01:04:04;;;;;;;5.40;3.30;;;9.50;96.80;;;;;;9966876;28;20564;-70
2022/02/03 01:08:56;;;;;;;6.63;3.60;;;9.50;96.80;;;;;;9976685;28;20042;-72
2022/02/03 01:13:53;;;;;;;4.47;3.08;;;9.40;96.90;;;;;;9973366;28;20030;-69
2022/02/03 01:44:43;;;;;;;6.43;3.55;;;9.50;96.70;;;;;;9976636;28;20028;-70
2022/02/03 01:54:49;;;;;;;4.82;3.22;;;9.50;96.80;;;;;;9973820;28;20038;-68
2022/02/03 01:59:43;;;;;;;7.40;3.20;;;9.40;96.80;;;;;;9972483;28;20117;-70
2022/02/03 02:05:02;;;;;;;4.80;2.88;;;9.40;96.90;;;;;;9969903;28;20049;-70
2022/02/03 02:10:12;;;;;;;5.25;3.25;;;9.40;97.20;;;;;;9969906;28;20133;-70
2022/02/03 02:15:26;;;;;;;4.40;3.28;;;9.40;96.80;;;;;;9959493;28;20394;-68
2022/02/03 02:46:20;;;;;;;3.78;2.22;;;9.40;97.00;;;;;;9965407;28;20048;-70
2022/02/03 02:51:18;;;;;;;3.55;2.35;;;9.40;97.00;;;;;;9972021;28;20540;-70
2022/02/03 02:56:25;;;;;;;3.90;2.47;;;9.40;97.00;;;;;;9969849;28;20017;-71
2022/02/03 03:32:57;;;;;;;4.28;2.70;;;9.30;97.10;;;;;;9966434;28;20069;-71
2022/02/03 03:37:49;;;;;;;3.03;2.38;;;9.30;97.20;;;;;;9974886;28;20030;-71
2022/02/03 03:42:44;;;;;;;3.33;2.22;;;9.40;97.10;;;;;;9961817;28;20131;-69
2022/02/03 03:47:38;;;;;;;4.50;3.10;;;9.40;97.20;;;;;;9990957;28;20049;-71
2022/02/03 03:52:31;;;;;;;4.15;2.85;;;9.30;97.30;;;;;;9991915;28;20095;-70
2022/02/03 05:05:16;;;;;;;3.35;2.50;;;9.40;97.20;;;;;;9979169;28;20070;-70
2022/02/03 05:16:19;;;;;;;5.00;2.45;;;9.30;97.20;;;;;;9971386;28;20117;-70
2022/02/03 05:48:06;;;;;;;4.15;2.60;;;9.00;97.30;;;;;;9951936;28;20030;-70
2022/02/03 06:13:31;;;;;;;4.90;2.92;;;8.60;97.30;;;;;;9962551;28;20064;-69
2022/02/03 06:24:37;;;;;;;3.25;2.40;;;8.50;97.40;;;;;;9969739;28;20077;-70
2022/02/03 06:28:55;;;;;;;4.40;2.45;;;8.60;97.70;;;;;;9946269;28;20535;-72
2022/02/03 06:33:46;;;;;;;2.85;1.90;;;8.50;97.40;;;;;;9975372;28;20024;-70
2022/02/03 06:38:36;;;;;;;4.90;2.78;;;8.50;97.40;;;;;;9960736;28;20063;-70
2022/02/03 06:43:27;;;;;;;4.75;2.42;;;8.50;97.50;;;;;;9972996;28;20524;-70
2022/02/03 06:48:19;;;;;;;3.75;2.35;;;8.50;97.50;;;;;;9979053;28;20049;-70
2022/02/03 06:53:17;;;;;;;4.45;2.63;;;8.60;97.50;;;;;;9967627;28;20042;-70
2022/02/03 07:03:21;;;;;;;3.70;2.10;;;8.30;97.60;;;;;;9974202;28;20049;-70
2022/02/03 07:08:15;;;;;;;3.90;2.45;;;8.50;97.60;;;;;;9951828;28;20026;-70
2022/02/03 07:13:10;;;;;;;3.67;2.15;;;8.50;97.50;;;;;;9977906;28;20081;-69
2022/02/03 07:18:10;;;;;;;4.30;2.23;;;8.60;97.50;;;;;;9973062;28;20033;-70
2022/02/03 07:23:06;;;;;;;4.60;2.65;;;8.60;97.50;;;;;;9964740;28;20544;-70
2022/02/03 07:27:57;;;;;;;2.92;2.08;;;8.60;97.50;;;;;;9950478;28;20134;-69
2022/02/03 07:32:54;;;;;;;2.78;2.13;;;8.60;97.70;;;;;;9963876;28;20038;-73
2022/02/03 07:37:47;;;;;;;3.63;2.05;;;8.70;97.60;;;;;;9962040;28;20426;-68
2022/02/03 07:42:39;;;;;;;3.67;2.53;;;8.80;97.60;;;;;;9952800;28;20061;-67
2022/02/03 07:47:30;;;;;;;5.35;2.63;;;8.80;97.50;;;;;;9959847;28;20061;-69
2022/02/03 07:52:20;;;;;;;3.88;1.98;;;8.80;97.50;;;;;;9963553;28;20026;-70
2022/02/03 07:57:11;;;;;;;3.95;2.22;;;8.70;97.50;;;;;;9936434;28;20034;-71
2022/02/03 08:02:02;;;;;;;2.97;2.25;;;8.70;97.50;;;;;;9965684;28;20057;-73
2022/02/03 08:06:53;;;;;;;3.45;2.22;;;8.70;97.50;;;;;;9958180;28;20396;-70
2022/02/03 08:11:46;;;;;;;4.30;2.22;;;8.80;97.50;;;;;;9962835;28;20063;-73
2022/02/03 08:16:42;;;;;;;3.42;3.00;;;8.80;97.50;;;;;;9953944;28;20018;-72
2022/02/03 08:21:37;;;;;;;6.82;2.88;;;8.90;97.50;;;;;;9963636;28;20455;-72
2022/02/03 08:26:53;;;;;;;4.10;1.92;;;8.90;97.50;;;;;;9966237;28;20099;-70
2022/02/03 08:36:50;;;;;;;4.18;2.03;;;9.00;97.50;;;;;;9965133;28;20559;-69
2022/02/03 08:41:40;;;;;;;5.85;2.20;;;9.00;97.40;;;;;;9962755;28;20149;-69
2022/02/03 08:46:31;;;;;;;3.95;2.03;;;9.10;97.30;;;;;;9964068;28;20034;-70
2022/02/03 08:51:22;;;;;;;4.68;2.50;;;9.20;97.50;;;;;;9965947;28;20034;-70
2022/02/03 08:56:31;;;;;;;3.55;2.05;;;9.30;97.30;;;;;;9970468;28;20046;-73
2022/02/03 09:57:53;;;;;;;3.97;2.05;;;10.20;96.50;;;;;;9963324;28;20145;-73
2022/02/03 10:03:32;;;;;;;2.97;1.73;;;10.30;96.50;;;;;;9957046;28;20134;-78
2022/02/03 10:08:26;;;;;;;3.28;1.70;;;10.40;96.30;;;;;;9963917;28;20402;-74
2022/02/03 10:13:22;;;;;;;2.47;1.85;;;10.70;96.30;;;;;;9968240;28;20080;-75
2022/02/03 10:18:28;;;;;;;2.92;2.15;;;10.60;96.60;;;;;;9965297;28;20026;-73
2022/02/03 10:23:22;;;;;;;3.85;1.67;;;10.70;96.30;;;;;;9947544;28;20075;-76
2022/02/03 10:28:15;;;;;;;2.25;1.25;;;10.70;96.10;;;;;;9939852;28;20058;-79
2022/02/03 10:33:07;;;;;;;4.20;1.30;;;10.70;95.90;;;;;;9966370;28;20034;-76
2022/02/03 11:03:53;;;;;;;1.75;0.95;;;10.80;95.40;;;;;;9974628;28;20166;-72
2022/02/03 11:08:59;;;;;;;1.95;1.08;;;10.90;95.30;;;;;;9966459;28;20035;-70
2022/02/03 11:13:51;;;;;;;1.55;1.20;;;11.00;95.20;;;;;;9969216;28;20118;-73
2022/02/03 11:18:43;;;;;;;2.42;1.45;;;10.90;95.00;;;;;;9972307;28;20423;-75
2022/02/03 11:23:39;;;;;;;2.78;1.38;;;11.10;94.90;;;;;;9966378;28;20034;-73
2022/02/03 12:05:09;;;;;;;2.65;1.60;;;11.50;93.90;;;;;;9973106;28;20033;-69
2022/02/03 12:11:25;;;;;;;2.55;1.58;;;11.40;93.70;;;;;;9970823;28;20126;-75
2022/02/03 12:16:05;;;;;;;3.47;2.05;;;11.40;93.80;;;;;;9969198;28;20101;-74
2022/02/03 12:21:08;;;;;;;2.38;1.40;;;11.30;93.80;;;;;;9981072;28;20035;-74
2022/02/03 12:26:05;;;;;;;7.75;3.92;;;11.30;93.40;;;;;;9978684;28;20034;-75
2022/02/03 12:41:37;;;;;;;7.57;3.47;;;11.70;93.40;;;;;;9964440;28;20088;-76
2022/02/03 12:46:28;;;;;;;5.63;2.55;;;11.80;93.00;;;;;;9979942;28;20125;-74
2022/02/03 12:51:21;;;;;;;4.63;2.72;;;11.80;93.00;;;;;;9964755;28;20066;-74
2022/02/03 12:56:11;;;;;;;4.25;2.13;;;11.70;93.10;;;;;;9975390;28;20022;-74
2022/02/03 13:01:09;;;;;;;3.92;1.83;;;11.40;93.10;;;;;;9974849;28;20044;-74
2022/02/03 13:06:04;;;;;;;3.35;1.92;;;11.20;93.10;;;;;;9962473;28;20137;-73
2022/02/03 13:11:10;;;;;;;3.22;2.10;;;11.30;93.00;;;;;;9960921;28;20053;-76
2022/02/03 13:16:08;;;;;;;4.88;2.33;;;11.50;92.80;;;;;;9977172;28;20041;-74
2022/02/03 13:21:07;;;;;;;2.90;1.70;;;11.40;92.90;;;;;;9960485;28;20038;-73
2022/02/03 13:26:12;;;;;;;3.45;1.73;;;11.30;92.70;;;;;;9964449;28;20022;-70
2022/02/03 13:31:20;;;;;;;3.55;1.50;;;11.10;93.00;;;;;;9974207;28;20054;-69
2022/02/03 13:36:21;;;;;;;2.70;1.55;;;11.10;93.00;;;;;;9960973;28;20026;-68
2022/02/03 13:41:24;;;;;;;5.70;1.67;;;11.10;92.90;;;;;;9977891;28;20030;-70
2022/02/03 13:46:28;;;;;;;4.88;2.33;;;11.10;92.80;;;;;;9979088;28;20026;-73
2022/02/03 13:51:19;;;;;;;3.33;2.45;;;11.00;92.90;;;;;;9954724;28;20069;-73
2022/02/03 14:17:27;;;;;;;3.05;2.25;;;11.20;92.80;;;;;;9976241;28;20162;-72
2022/02/03 14:21:57;;;;;;;3.15;2.10;;;11.20;92.80;;;;;;9966458;28;20046;-74
2022/02/03 14:32:02;;;;;;;3.45;2.25;;;11.20;92.80;;;;;;9967752;28;20562;-70
2022/02/03 14:42:14;;;;;;;4.10;2.45;;;11.30;92.60;;;;;;9954877;28;20100;-72
2022/02/03 14:47:05;;;;;;;2.50;1.95;;;11.20;92.70;;;;;;9979301;28;20058;-70
2022/02/03 14:52:11;;;;;;;4.72;2.55;;;11.20;92.70;;;;;;9986609;28;20054;-75
2022/02/03 15:02:14;;;;;;;3.00;2.25;;;11.10;92.70;;;;;;9983153;28;20069;-75
2022/02/03 15:07:08;;;;;;;3.60;2.83;;;10.80;92.70;;;;;;9969186;28;20038;-73
2022/02/03 15:12:11;;;;;;;5.43;2.90;;;10.90;92.70;;;;;;9966303;28;20198;-72
2022/02/03 15:17:03;;;;;;;3.47;2.10;;;10.80;92.80;;;;;;9961328;28;20098;-72
2022/02/03 15:21:54;;;;;;;4.82;2.17;;;10.60;92.90;;;;;;9958119;28;20081;-78
2022/02/03 15:26:44;;;;;;;3.45;1.85;;;10.60;92.90;;;;;;9966056;28;20133;-74
2022/02/03 15:31:40;;;;;;;5.05;2.30;;;10.50;92.90;;;;;;9969286;28;20370;-74
2022/02/03 15:36:35;;;;;;;3.75;2.50;;;10.50;92.90;;;;;;9961916;28;20023;-69
2022/02/03 15:41:28;;;;;;;5.70;2.05;;;10.40;92.90;;;;;;9966059;28;20046;-70
2022/02/03 15:46:21;;;;;;;3.00;2.05;;;10.50;92.80;;;;;;9960328;28;20029;-69
2022/02/03 15:56:07;;;;;;;5.15;2.53;;;10.50;92.80;;;;;;9958155;28;20464;-70
2022/02/03 16:17:04;;;;;;;4.43;2.40;;;10.20;93.20;;;;;;9950475;28;20109;-73
2022/02/03 16:22:01;;;;;;;8.13;3.00;;;10.20;93.20;;;;;;9965767;28;20046;-70
2022/02/03 16:52:34;;;;;;;9.15;3.50;;;10.10;93.30;;;;;;9966388;28;20069;-74
2022/02/03 16:57:26;;;;;;;4.70;2.70;;;10.00;93.30;;;;;;9972239;28;20022;-65
2022/02/03 17:02:17;;;;;;;5.10;3.22;;;10.10;93.30;;;;;;9962202;28;20173;-68
2022/02/03 17:07:08;;;;;;;8.48;3.47;;;10.20;93.10;;;;;;9940867;28;20030;-69
2022/02/03 17:11:59;;;;;;;6.63;3.83;;;10.20;93.20;;;;;;9968543;28;20500;-76
2022/02/03 17:16:50;;;;;;;6.38;3.67;;;10.20;93.10;;;;;;9963157;28;20226;-70
2022/02/03 17:21:41;;;;;;;6.55;3.40;;;10.00;93.30;;;;;;9940803;28;20026;-68
2022/02/03 17:27:24;;;;;;;9.02;3.67;;;9.90;93.50;;;;;;9935685;28;20105;-70
2022/02/03 17:32:01;;;;;;;3.78;2.90;;;9.80;93.60;;;;;;9962168;28;20412;-72
2022/02/03 18:08:26;;;;;;;7.35;3.03;;;9.60;93.80;;;;;;9967478;28;20244;-67
2022/02/03 18:58:39;;;;;;;5.75;3.75;;;9.60;93.90;;;;;;9981151;28;20037;-69
2022/02/03 19:56:20;;;;;;;9.23;5.13;;;9.40;94.20;;;;;;9973065;28;20525;-73
2022/02/03 19:56:42;;;;;;;13.15;6.78;;;9.40;94.20;;;;;;9952983;28;20509;-69
2022/02/03 20:05:57;;;;;;;13.23;6.30;;;9.30;94.40;;;;;;9972480;28;20046;-71
2022/02/03 20:10:38;;;;;;;13.23;7.60;;;9.20;94.40;;;;;;9961509;28;20069;-71
2022/02/03 20:15:28;;;;;;;13.43;6.22;;;9.20;94.50;;;;;;9957798;28;20532;-71
2022/02/03 20:20:23;;;;;;;33.35;14.75;;;9.20;94.60;;;;;;9963599;28;20030;-70
2022/02/03 20:25:17;;;;;;;27.40;12.52;;;9.20;94.70;;;;;;9959392;28;20023;-71
2022/02/03 20:30:10;;;;;;;21.45;12.02;;;9.20;94.70;;;;;;9953223;28;20074;-70
2022/02/03 20:35:01;;;;;;;17.33;9.98;;;9.30;94.70;;;;;;9936693;28;20041;-70
2022/02/03 20:39:55;;;;;;;19.77;9.98;;;9.20;94.70;;;;;;9951067;28;20515;-70
2022/02/03 20:44:48;;;;;;;17.98;9.07;;;9.00;95.00;;;;;;9960585;28;20138;-71
2022/02/03 20:49:40;;;;;;;12.98;7.65;;;9.00;95.10;;;;;;9979053;28;20072;-71
2022/02/03 20:54:31;;;;;;;12.80;6.97;;;9.10;95.10;;;;;;9961659;28;20026;-72
2022/02/03 20:59:28;;;;;;;13.75;6.95;;;9.10;95.10;;;;;;9983639;28;20092;-70
2022/02/03 21:04:31;;;;;;;15.40;7.82;;;9.00;95.20;;;;;;9971753;28;20114;-71
2022/02/03 21:09:26;;;;;;;11.57;6.47;;;9.00;95.20;;;;;;9946912;28;20131;-71
2022/02/03 21:14:17;;;;;;;10.85;6.72;;;9.00;95.10;;;;;;9977942;28;20057;-71
2022/02/03 21:19:08;;;;;;;10.25;6.40;;;9.00;95.20;;;;;;9976305;28;20026;-69
2022/02/03 21:23:58;;;;;;;12.88;7.25;;;9.10;95.20;;;;;;9966274;28;20038;-69
2022/02/03 21:28:49;;;;;;;11.52;5.88;;;9.00;95.40;;;;;;9972403;28;20050;-71
2022/02/03 21:33:55;;;;;;;11.93;5.97;;;9.00;95.20;;;;;;9973147;28;20536;-71
2022/02/03 21:38:47;;;;;;;8.85;6.32;;;9.00;95.20;;;;;;9975735;28;20026;-71
2022/02/03 21:43:37;;;;;;;10.73;6.25;;;9.00;95.20;;;;;;9969307;28;20552;-70
2022/02/03 21:48:28;;;;;;;12.65;6.22;;;9.00;95.20;;;;;;9989724;28;20030;-70
2022/02/03 21:53:23;;;;;;;14.10;7.30;;;9.00;95.10;;;;;;9984793;28;20069;-70
2022/02/03 21:58:14;;;;;;;10.73;7.00;;;8.80;95.20;;;;;;9988795;28;20019;-70
2022/02/03 22:03:05;;;;;;;14.27;8.07;;;8.80;95.30;;;;;;9984889;28;20165;-71
2022/02/03 22:07:56;;;;;;;11.40;6.53;;;8.70;95.30;;;;;;9952461;28;20087;-69
2022/02/03 22:12:47;;;;;;;13.65;7.03;;;8.10;95.10;;;;;;9976220;28;20302;-70
2022/02/03 22:17:39;;;;;;;9.73;6.13;;;8.60;95.30;;;;;;9953197;28;20341;-71
2022/02/03 22:43:34;;;;;;;13.88;7.50;;;8.30;95.20;;;;;;9967849;28;20028;-70
2022/02/03 22:48:26;;;;;;;15.25;7.78;;;8.20;95.30;;;;;;9948037;28;20193;-69
2022/02/03 22:53:17;;;;;;;20.95;9.32;;;8.20;95.30;;;;;;9955076;28;20566;-70
2022/02/03 23:03:35;;;;;;;13.53;7.67;;;8.10;95.30;;;;;;9852828;28;20042;-70
2022/02/03 23:08:34;;;;;;;10.63;6.90;;;8.10;95.40;;;;;;9973611;28;20034;-70
2022/02/03 23:13:58;;;;;;;12.95;7.35;;;8.00;95.40;;;;;;9960987;28;20113;-70
2022/02/03 23:18:53;;;;;;;13.40;7.57;;;8.00;95.60;;;;;;9967124;28;20140;-70
2022/02/03 23:23:44;;;;;;;11.93;6.22;;;8.00;95.50;;;;;;9964150;28;20121;-70
2022/02/03 23:28:35;;;;;;;10.25;5.88;;;7.90;95.60;;;;;;9971964;28;20125;-71
2022/02/03 23:33:29;;;;;;;9.85;5.97;;;8.00;95.40;;;;;;9969749;28;20540;-70
